Time;durP1;ratioP1;P1;durP2;ratioP2;P2;SDS_P1;SDS_P2;PMS_P1;PMS_P2;Temp;Humidity;BMP_temperature;BMP_pressure;BME280_temperature;BME280_humidity;BME280_pressure;Samples;Min_cycle;Max_cycle;Signal;HPM_P1;HPM_P2
2021/03/25 00:01:03;;;;;;;5.55;1.90;;;;;;;25.58;48.02;99746.95;1791619;78;21641;-26
2021/03/25 00:03:30;;;;;;;2.30;1.50;;;;;;;25.57;48.00;99745.25;1785161;78;22050;-26
2021/03/25 00:06:00;;;;;;;2.08;1.15;;;;;;;25.57;47.97;99742.56;1797257;78;21676;-26
2021/03/25 05:31:52;;;;;;;3.27;1.60;;;;;;;26.03;46.47;99760.66;1788003;78;23183;-25
2021/03/25 05:34:20;;;;;;;4.30;1.60;;;;;;;26.00;46.55;99765.02;1773450;78;21225;-27
2021/03/25 05:36:48;;;;;;;;;;;;;;;26.04;46.51;99768.23;1756144;80;22081;-28
2021/03/25 05:39:16;;;;;;;2.80;1.42;;;;;;;26.06;46.22;99773.45;1748439;80;20484;-27
2021/03/25 05:42:04;;;;;;;;;;;;;;;26.07;46.46;99767.91;1757625;80;21636;-28
2021/03/25 05:45:09;;;;;;;1.70;1.60;;;;;;;26.08;46.15;99767.41;1760518;78;20518;-25
2021/03/25 05:48:00;;;;;;;2.60;1.72;;;;;;;26.11;46.38;99775.17;1743356;80;21662;-25
2021/03/25 05:50:47;;;;;;;3.62;1.47;;;;;;;26.13;46.31;99777.20;1761740;79;22351;-27
2021/03/25 05:53:49;;;;;;;1.95;1.50;;;;;;;26.16;46.25;99778.20;1747830;80;21591;-26
2021/03/25 05:56:34;;;;;;;1.72;1.60;;;;;;;26.18;46.21;99772.14;1721925;81;21579;-27
2021/03/25 05:59:12;;;;;;;4.95;1.82;;;;;;;26.21;46.12;99782.60;1732886;81;21215;-25
2021/03/25 06:02:08;;;;;;;2.52;1.70;;;;;;;26.25;46.20;99780.42;1739719;80;21137;-26
2021/03/25 06:04:37;;;;;;;2.12;1.47;;;;;;;26.31;45.94;99779.77;1730523;81;22007;-25
2021/03/25 06:07:19;;;;;;;2.77;1.60;;;;;;;26.39;45.77;99781.98;1723042;80;21705;-25
2021/03/25 06:10:23;;;;;;;3.22;1.30;;;;;;;26.49;45.49;99788.58;1704750;81;21624;-25
2021/03/25 06:13:28;;;;;;;7.15;1.80;;;;;;;26.56;45.42;99777.95;1724619;80;21571;-27
2021/03/25 06:16:21;;;;;;;3.67;1.77;;;;;;;26.69;45.29;99782.90;1702608;83;21685;-26
2021/03/25 06:19:11;;;;;;;5.17;1.77;;;;;;;26.80;45.14;99779.87;1720550;80;21569;-25
2021/03/25 06:22:05;;;;;;;2.27;1.70;;;;;;;26.93;45.00;99787.48;1722555;81;21557;-26
2021/03/25 06:25:29;;;;;;;4.45;1.50;;;;;;;27.04;44.85;99786.31;1716532;80;21583;-26
2021/03/25 06:28:20;;;;;;;2.47;1.42;;;;;;;27.15;44.73;99792.20;1716981;80;21099;-25
2021/03/25 06:31:00;;;;;;;2.58;1.80;;;;;;;27.28;44.61;99788.19;1710048;80;21616;-25
2021/03/25 06:33:31;;;;;;;3.00;1.80;;;;;;;27.38;44.50;99784.27;1710260;81;22100;-25
2021/03/25 06:36:08;;;;;;;4.40;1.60;;;;;;;27.51;44.42;99787.80;1738144;80;21664;-25
2021/03/25 06:38:56;;;;;;;2.85;1.87;;;;;;;27.64;44.32;99789.97;1731849;80;21154;-27
2021/03/25 06:41:35;;;;;;;4.97;1.57;;;;;;;27.79;44.13;99780.64;1694969;82;21167;-26
2021/03/25 06:44:30;;;;;;;3.45;1.62;;;;;;;27.91;43.95;99784.67;1733001;80;21201;-27
2021/03/25 06:47:07;;;;;;;2.45;1.30;;;;;;;27.95;43.80;99782.47;1738149;80;22673;-24
2021/03/25 06:49:47;;;;;;;2.95;1.90;;;;;;;27.99;43.80;99782.47;1747677;80;21722;-24
2021/03/25 06:52:29;;;;;;;2.85;1.52;;;;;;;28.03;43.85;99778.40;1739134;79;21674;-25
2021/03/25 06:55:14;;;;;;;3.12;1.80;;;;;;;28.08;43.77;99776.50;1695272;82;21594;-24
2021/03/25 06:57:48;;;;;;;3.62;2.02;;;;;;;28.11;43.72;99774.81;1736909;79;21683;-24
2021/03/25 07:00:25;;;;;;;2.10;1.80;;;;;;;28.17;43.63;99770.05;1859515;74;23946;-24
2021/03/25 07:02:53;;;;;;;5.17;2.02;;;;;;;28.16;43.82;99775.10;1831154;75;21631;-24
2021/03/25 07:05:27;;;;;;;1.67;1.40;;;;;;;28.17;43.85;99769.21;1785778;78;21664;-24
2021/03/25 07:08:19;;;;;;;2.72;1.45;;;;;;;28.20;43.88;99772.89;1777651;78;22218;-24
2021/03/25 07:10:54;;;;;;;4.53;2.02;;;;;;;28.21;43.86;99767.83;1778548;78;21643;-35
2021/03/25 07:13:41;;;;;;;3.08;1.50;;;;;;;28.22;43.92;99773.06;1788692;77;21686;-26
2021/03/25 07:16:10;;;;;;;;;;;;;;;28.23;44.02;99768.50;1793384;77;21663;-24
2021/03/25 07:19:11;;;;;;;4.08;1.77;;;;;;;28.22;43.95;99771.72;1787908;78;20550;-24
2021/03/25 07:21:49;;;;;;;2.00;1.62;;;;;;;28.21;44.19;99771.89;1761172;79;21602;-26
2021/03/25 07:24:36;;;;;;;2.05;1.17;;;;;;;28.21;44.25;99767.83;1794288;77;21551;-26
2021/03/25 07:27:22;;;;;;;1.92;1.52;;;;;;;28.19;44.34;99765.30;1782700;77;21678;-26
2021/03/25 07:30:06;;;;;;;5.05;1.45;;;;;;;28.23;44.32;99763.92;1856948;74;22715;-24
2021/03/25 07:32:46;;;;;;;4.03;1.40;;;;;;;28.20;44.37;99755.33;1842490;76;21642;-26
2021/03/25 07:35:40;;;;;;;2.37;1.40;;;;;;;28.19;44.40;99761.25;1824402;77;22000;-25
2021/03/25 07:38:25;;;;;;;4.70;1.40;;;;;;;28.19;44.40;99757.71;1829979;77;21551;-24
2021/03/25 07:41:21;;;;;;;3.52;1.45;;;;;;;28.18;44.41;99758.72;1828395;77;21643;-12
2021/03/25 07:44:07;;;;;;;2.08;1.30;;;;;;;28.17;44.48;99762.45;1837025;76;21632;-14
2021/03/25 07:46:47;;;;;;;4.35;1.22;;;;;;;28.17;44.61;99771.40;1832605;75;21564;-13
2021/03/25 07:49:18;;;;;;;12.25;1.47;;;;;;;28.14;44.78;99757.73;1829373;75;21634;-14
2021/03/25 07:52:02;;;;;;;6.15;1.62;;;;;;;28.20;44.93;99772.41;1793234;77;21635;-14
2021/03/25 07:54:38;;;;;;;27.77;2.10;;;;;;;28.24;45.01;99760.22;1821222;77;21607;-13
2021/03/25 07:57:20;;;;;;;3.65;1.20;;;;;;;28.26;44.82;99760.88;1785955;78;21508;-14
2021/03/25 07:59:53;;;;;;;6.17;1.67;;;;;;;28.19;44.80;99753.14;1789678;77;21544;-13
2021/03/25 08:02:34;;;;;;;5.20;1.82;;;;;;;28.21;44.68;99755.16;1766822;78;22488;-11
2021/03/25 08:05:17;;;;;;;6.75;2.00;;;;;;;28.14;44.68;99745.58;1797478;78;21181;-12
2021/03/25 08:07:46;;;;;;;8.23;1.60;;;;;;;28.20;44.67;99753.48;1795429;78;21627;-12
2021/03/25 08:10:39;;;;;;;6.20;1.30;;;;;;;28.23;44.66;99755.81;1789352;78;21669;-11
2021/03/25 08:13:29;;;;;;;9.58;1.20;;;;;;;28.23;44.62;99755.81;1793700;77;21678;-11
2021/03/25 08:16:07;;;;;;;2.75;1.40;;;;;;;28.22;44.67;99755.98;1776471;78;22010;-12
2021/03/25 08:18:49;;;;;;;7.08;1.72;;;;;;;28.16;44.59;99753.48;1791899;78;22101;-11
2021/03/25 08:21:49;;;;;;;5.30;1.50;;;;;;;28.24;44.54;99766.14;1770672;78;21619;-12
2021/03/25 08:24:39;;;;;;;5.42;1.80;;;;;;;28.21;44.48;99763.27;1797334;78;21183;-11
2021/03/25 08:27:24;;;;;;;2.77;1.27;;;;;;;28.21;44.59;99764.61;1806209;78;21178;-11
2021/03/25 08:30:24;;;;;;;3.20;1.55;;;;;;;28.20;44.54;99768.35;1764720;80;22240;-11
2021/03/25 08:33:31;;;;;;;2.98;1.40;;;;;;;28.17;44.61;99774.09;1753584;79;21574;-13
2021/03/25 08:36:23;;;;;;;4.60;1.45;;;;;;;28.09;44.62;99760.64;1788356;78;21594;-15
2021/03/25 08:39:28;;;;;;;2.52;1.85;;;;;;;28.11;44.68;99766.19;1791276;78;21666;-14
2021/03/25 08:42:26;;;;;;;1.62;1.40;;;;;;;28.07;44.74;99765.37;1789539;79;21644;-13
2021/03/25 08:45:24;;;;;;;3.17;1.77;;;;;;;28.05;44.81;99775.49;1787605;78;21593;-14
2021/03/25 08:48:15;;;;;;;2.50;1.80;;;;;;;28.02;44.84;99769.94;1789561;78;21609;-15
2021/03/25 08:51:01;;;;;;;7.80;3.98;;;;;;;28.00;44.88;99765.74;1779428;77;21625;-14
2021/03/25 08:53:57;;;;;;;15.78;6.60;;;;;;;27.96;44.96;99761.20;1781549;78;21187;-14
2021/03/25 08:56:42;;;;;;;11.43;5.22;;;;;;;27.93;45.05;99758.34;1754131;78;22263;-15
2021/03/25 08:59:22;;;;;;;14.10;5.30;;;;;;;27.90;45.15;99765.44;1754920;79;21854;-14
2021/03/25 09:02:17;;;;;;;10.63;4.30;;;;;;;27.85;45.25;99761.03;1767805;79;21616;-13
2021/03/25 09:05:20;;;;;;;18.42;4.45;;;;;;;27.85;45.32;99761.55;1759897;78;21594;-15
2021/03/25 09:07:48;;;;;;;13.53;4.72;;;;;;;27.80;45.47;99752.59;1765619;79;21561;-15
2021/03/25 09:10:25;;;;;;;16.00;4.22;;;;;;;27.78;45.57;99760.03;1766307;80;21232;-15
2021/03/25 09:12:53;;;;;;;12.00;4.62;;;;;;;27.77;45.62;99755.67;1756479;79;22000;-16
2021/03/25 09:15:20;;;;;;;10.88;4.33;;;;;;;27.77;45.62;99759.20;1789488;77;21731;-14
2021/03/25 09:17:57;;;;;;;9.03;4.22;;;;;;;27.76;45.67;99749.44;1796262;78;21180;-14
2021/03/25 09:20:33;;;;;;;14.85;4.95;;;;;;;27.75;45.66;99752.30;1785685;78;21647;-15
2021/03/25 09:23:03;;;;;;;8.23;4.10;;;;;;;27.76;45.62;99758.89;1791979;77;21713;-16
2021/03/25 09:25:37;;;;;;;8.75;4.60;;;;;;;27.75;45.61;99756.36;1745518;78;22106;-15
2021/03/25 09:28:19;;;;;;;12.13;4.65;;;;;;;27.72;45.66;99750.77;1752113;79;21697;-15
2021/03/25 09:31:14;;;;;;;8.00;4.67;;;;;;;27.73;45.65;99748.42;1741129;81;21590;-15
2021/03/25 09:33:50;;;;;;;14.38;5.25;;;;;;;27.63;45.70;99745.06;1767277;78;21618;-16
2021/03/25 09:36:23;;;;;;;8.70;5.10;;;;;;;27.66;45.70;99750.64;1764036;78;21540;-17
2021/03/25 09:39:04;;;;;;;10.55;4.85;;;;;;;27.64;45.80;99754.03;1770749;79;21622;-16
2021/03/25 09:41:39;;;;;;;10.55;5.47;;;;;;;27.64;45.85;99754.86;1773252;78;21614;-17
2021/03/25 09:44:15;;;;;;;13.18;5.30;;;;;;;27.61;45.95;99746.27;1766690;79;21565;-15
2021/03/25 09:46:56;;;;;;;11.35;4.62;;;;;;;27.60;45.38;99752.18;1768840;79;21656;-15
2021/03/25 09:49:44;;;;;;;12.63;4.72;;;;;;;27.54;45.34;99738.86;1753070;79;21102;-15
2021/03/25 09:52:28;;;;;;;12.82;5.25;;;;;;;27.55;45.41;99741.05;1763871;79;21982;-15
2021/03/25 09:55:01;;;;;;;16.30;5.03;;;;;;;27.51;45.36;99740.55;1750432;78;21571;-16
2021/03/25 09:57:37;;;;;;;17.40;5.03;;;;;;;27.46;44.27;99742.08;1762536;80;21628;-15
2021/03/25 10:00:28;;;;;;;14.35;4.65;;;;;;;27.35;41.87;99735.18;1755264;79;21639;-14
2021/03/25 10:03:04;;;;;;;14.85;5.85;;;;;;;27.37;41.95;99747.52;1764734;79;21593;-13
2021/03/25 10:05:41;;;;;;;14.58;5.87;;;;;;;27.35;42.72;99738.75;1750806;78;22074;-12
2021/03/25 10:08:19;;;;;;;11.10;5.30;;;;;;;27.32;43.02;99740.42;1790907;78;21199;-12
2021/03/25 10:10:54;;;;;;;15.98;6.03;;;;;;;27.31;43.18;99736.55;1787691;78;21484;-12
2021/03/25 10:13:43;;;;;;;15.80;6.53;;;;;;;27.31;43.23;99733.36;1795012;77;21183;-12
2021/03/25 10:16:38;;;;;;;14.15;6.33;;;;;;;27.33;43.27;99734.03;1790827;78;21660;-14
2021/03/25 10:19:10;;;;;;;13.93;6.75;;;;;;;27.35;43.12;99752.24;1762885;79;22171;-14
2021/03/25 10:21:59;;;;;;;19.55;8.63;;;;;;;27.30;42.29;99738.92;1757032;79;21621;-13
2021/03/25 10:24:38;;;;;;;20.55;9.13;;;;;;;27.24;42.27;99734.16;1757892;80;21707;-14
2021/03/25 10:27:37;;;;;;;20.68;8.00;;;;;;;27.24;42.13;99735.51;1759578;79;21544;-14
2021/03/25 10:30:23;;;;;;;20.43;7.78;;;;;;;27.23;42.12;99747.33;1754604;79;21539;-14
2021/03/25 10:32:52;;;;;;;20.08;7.80;;;;;;;27.18;42.24;99737.90;1756328;78;21511;-14
2021/03/25 10:35:28;;;;;;;18.75;8.63;;;;;;;27.17;42.38;99741.59;1766558;79;21586;-14
2021/03/25 10:37:59;;;;;;;16.57;8.33;;;;;;;27.17;42.49;99744.81;1770370;79;21575;-14
2021/03/25 10:40:37;;;;;;;16.62;8.45;;;;;;;27.15;42.60;99736.88;1759091;78;21650;-14
2021/03/25 10:43:17;;;;;;;16.42;7.87;;;;;;;27.15;42.66;99730.13;1761278;79;21917;-15
2021/03/25 10:48:43;;;;;;;3.80;2.40;;;;;;;26.15;21.31;99716.73;1803037;77;23885;-57
2021/03/25 10:51:16;;;;;;;2.80;2.60;;;;;;;22.69;21.50;99722.80;1791528;78;22059;-56
2021/03/25 10:53:51;;;;;;;4.12;2.55;;;;;;;19.97;22.17;99737.65;1781677;78;22063;-64
2021/03/25 10:56:39;;;;;;;4.00;2.35;;;;;;;17.94;21.35;99731.70;1792806;77;21593;-59
2021/03/25 10:59:17;;;;;;;4.33;2.33;;;;;;;16.30;22.31;99741.92;1793593;76;21648;-63
2021/03/25 11:01:58;;;;;;;4.47;2.42;;;;;;;14.05;23.53;99739.44;1735963;80;21656;-59
2021/03/25 11:05:09;;;;;;;3.47;2.83;;;;;;;14.05;23.53;99739.44;1728921;80;21596;-59
2021/03/25 11:07:44;;;;;;;2.75;2.20;;;;;;;13.29;23.42;99738.66;1707687;81;21967;-63
2021/03/25 11:10:29;;;;;;;3.33;2.58;;;;;;;12.41;23.83;99733.00;1717885;82;21688;-61
2021/03/25 11:13:17;;;;;;;2.70;2.15;;;;;;;11.81;24.14;99741.96;1712182;82;21669;-62
2021/03/25 11:16:00;;;;;;;4.33;2.60;;;;;;;11.23;25.43;99743.27;1716577;82;21652;-62
2021/03/25 11:18:40;;;;;;;4.28;2.80;;;;;;;10.85;24.86;99747.06;1722943;81;21213;-63
2021/03/25 11:21:08;;;;;;;7.17;3.35;;;;;;;10.40;24.32;99744.14;1715069;82;22000;-63
2021/03/25 11:23:37;;;;;;;6.78;2.90;;;;;;;9.97;24.92;99746.64;1724334;81;21716;-63
2021/03/25 11:26:05;;;;;;;5.15;2.62;;;;;;;9.79;25.03;99748.66;1723701;81;21592;-63
2021/03/25 11:28:38;;;;;;;3.70;2.17;;;;;;;9.70;25.75;99741.97;1717836;81;21812;-62
2021/03/25 11:31:26;;;;;;;5.17;2.65;;;;;;;9.77;25.36;99743.92;1724394;81;21598;-63
2021/03/25 11:34:01;;;;;;;8.37;3.67;;;;;;;9.78;24.04;99741.71;1830444;76;28400;-58
2021/03/25 11:36:45;;;;;;;10.03;3.10;;;;;;;9.80;25.03;99736.78;1825221;77;21615;-58
2021/03/25 11:39:29;;;;;;;4.58;2.62;;;;;;;9.92;25.53;99734.14;1822519;77;22041;-60
2021/03/25 11:42:01;;;;;;;4.60;2.25;;;;;;;10.08;25.46;99731.79;1792337;78;21575;-60
2021/03/25 11:44:43;;;;;;;2.02;1.80;;;;;;;10.22;25.45;99725.97;1760692;80;21608;-59
2021/03/25 11:47:39;;;;;;;4.75;2.10;;;;;;;10.30;24.92;99730.05;1783417;78;21564;-60
2021/03/25 11:50:20;;;;;;;5.50;2.67;;;;;;;10.29;24.75;99730.07;1780987;78;21589;-59
2021/03/25 11:52:52;;;;;;;2.95;2.17;;;;;;;10.30;24.51;99730.45;1782058;78;21575;-60
2021/03/25 11:55:25;;;;;;;2.77;1.90;;;;;;;10.34;24.43;99726.84;1768790;78;21638;-59
2021/03/25 11:57:53;;;;;;;2.40;1.62;;;;;;;10.38;24.80;99721.85;1798370;78;21584;-59
2021/03/25 12:00:25;;;;;;;4.15;2.42;;;;;;;10.53;25.03;99716.42;1764981;80;21681;-62
2021/03/25 12:02:54;;;;;;;3.67;3.00;;;;;;;10.61;24.48;99726.16;1772068;78;21554;-58
2021/03/25 12:05:34;;;;;;;4.00;2.22;;;;;;;10.58;24.24;99715.75;1795033;78;22102;-59
2021/03/25 12:08:17;;;;;;;3.05;2.20;;;;;;;10.64;24.72;99722.53;1798337;78;21559;-57
2021/03/25 12:10:46;;;;;;;5.05;2.52;;;;;;;10.71;23.82;99709.52;1750729;80;22010;-56
2021/03/25 12:13:14;;;;;;;;;;;;;;;10.73;24.55;99711.63;1716516;80;21548;-57
2021/03/25 12:15:44;;;;;;;4.37;2.70;;;;;;;10.82;24.31;99708.61;1770878;79;20479;-57
2021/03/25 12:18:26;;;;;;;2.72;2.25;;;;;;;10.90;24.36;99724.06;1767700;79;21984;-57
2021/03/25 12:20:57;;;;;;;4.95;2.05;;;;;;;10.93;24.10;99705.53;1773433;79;21699;-57
2021/03/25 12:23:28;;;;;;;3.77;2.10;;;;;;;10.90;23.91;99715.70;1794495;78;21643;-58
2021/03/25 12:25:59;;;;;;;2.60;2.10;;;;;;;10.97;23.40;99706.25;1771765;79;21768;-60
2021/03/25 12:28:26;;;;;;;3.75;2.02;;;;;;;11.04;23.60;99715.59;1771219;78;21591;-58
2021/03/25 12:30:55;;;;;;;4.75;2.58;;;;;;;11.12;23.91;99707.36;1775590;79;22096;-60
2021/03/25 12:33:44;;;;;;;;;;;;;;;11.26;24.14;99709.78;1780571;78;21575;-60
2021/03/25 12:36:13;;;;;;;5.00;2.42;;;;;;;11.45;23.86;99708.92;1652258;85;20640;-60
2021/03/25 12:38:42;;;;;;;3.35;2.50;;;;;;;11.53;23.86;99698.04;1684629;84;21638;-67
2021/03/25 12:41:35;;;;;;;3.47;2.25;;;;;;;11.47;23.52;99692.59;1683171;84;21686;-60
2021/03/25 12:44:06;;;;;;;3.65;2.00;;;;;;;11.60;23.90;99699.48;1682666;83;21813;-58
2021/03/25 12:46:34;;;;;;;2.12;1.90;;;;;;;11.94;24.04;99696.17;1684441;83;21225;-58
2021/03/25 12:49:01;;;;;;;;;;;;;;;12.25;23.03;99694.68;1676754;84;21582;-57
2021/03/25 12:51:29;;;;;;;;;;;;;;;12.53;22.99;99694.17;1668409;83;20627;-57
2021/03/25 12:53:57;;;;;;;4.90;1.87;;;;;;;13.11;21.43;99686.38;1687121;83;20760;-61
2021/03/25 12:56:31;;;;;;;3.20;1.98;;;;;;;14.03;22.39;99687.13;1690494;83;21729;-58
2021/03/25 12:59:02;;;;;;;2.90;2.20;;;;;;;15.26;20.81;99678.62;1692930;83;21710;-59
2021/03/25 13:01:32;;;;;;;3.00;1.77;;;;;;;15.76;20.64;99675.08;1681797;82;21625;-58
2021/03/25 13:04:00;;;;;;;4.08;2.10;;;;;;;16.19;19.63;99674.96;1646454;85;21565;-58
2021/03/25 13:06:28;;;;;;;5.40;2.00;;;;;;;16.78;19.62;99680.36;1651487;83;21564;-58
2021/03/25 13:08:56;;;;;;;2.55;2.00;;;;;;;17.31;19.10;99670.05;1641981;84;21825;-60
2021/03/25 13:11:26;;;;;;;4.35;2.02;;;;;;;18.29;18.88;99674.58;1647508;85;21698;-59
2021/03/25 13:13:55;;;;;;;2.92;2.58;;;;;;;19.40;17.41;99670.98;1645110;85;21646;-62
2021/03/25 13:16:25;;;;;;;2.33;1.95;;;;;;;19.40;17.41;99670.98;1645185;85;21626;-60
2021/03/25 13:18:55;;;;;;;3.27;2.10;;;;;;;19.40;17.42;99660.78;1642591;85;21284;-61
2021/03/25 13:21:23;;;;;;;;;;;;;;;19.33;17.43;99663.59;1650086;85;22524;-59
2021/03/25 13:23:52;;;;;;;3.55;2.83;;;;;;;19.12;16.99;99662.09;1642293;85;20589;-61
2021/03/25 13:26:21;;;;;;;2.85;2.15;;;;;;;18.71;18.21;99659.48;1644538;84;22820;-59
2021/03/25 13:28:51;;;;;;;3.45;2.40;;;;;;;18.02;18.41;99671.64;1636557;85;21598;-59
2021/03/25 13:31:19;;;;;;;3.27;2.42;;;;;;;15.71;18.77;99680.66;1637326;85;21638;-59
2021/03/25 13:33:47;;;;;;;3.27;2.67;;;;;;;15.71;18.77;99680.66;1640879;85;22068;-60
2021/03/25 13:36:15;;;;;;;5.97;2.70;;;;;;;14.59;20.30;99675.10;1678408;83;21713;-60
2021/03/25 13:38:45;;;;;;;3.92;2.83;;;;;;;14.59;20.30;99675.10;1677380;83;21605;-61
2021/03/25 13:41:13;;;;;;;3.62;2.62;;;;;;;14.63;20.23;99678.91;1677080;83;21143;-59
2021/03/25 13:43:40;;;;;;;4.00;2.80;;;;;;;14.84;20.48;99676.77;1678432;83;21706;-58
2021/03/25 13:46:08;;;;;;;;;;;;;;;15.18;20.34;99684.84;1672289;82;22167;-59
2021/03/25 13:48:36;;;;;;;4.87;2.40;;;;;;;15.61;20.13;99675.55;1677656;83;20375;-58
2021/03/25 13:51:05;;;;;;;3.08;2.58;;;;;;;16.07;19.86;99674.45;1680814;83;21194;-58
2021/03/25 13:53:33;;;;;;;4.50;2.85;;;;;;;16.44;19.78;99675.99;1677881;83;22076;-60
2021/03/25 13:56:01;;;;;;;4.17;3.15;;;;;;;16.58;19.79;99672.44;1672924;83;21685;-60
2021/03/25 13:58:31;;;;;;;3.90;2.85;;;;;;;16.27;19.51;99669.99;1669865;82;22099;-59
2021/03/25 14:01:01;;;;;;;6.42;3.10;;;;;;;16.07;19.74;99662.52;1667972;84;21694;-59
2021/03/25 14:03:28;;;;;;;2.85;2.52;;;;;;;15.98;19.60;99667.09;1708075;82;21641;-59
2021/03/25 14:05:55;;;;;;;;;;;;;;;15.99;19.95;99666.97;1709389;81;21583;-59
2021/03/25 14:08:25;;;;;;;4.70;2.90;;;;;;;16.05;19.70;99670.58;1710546;82;20579;-61
2021/03/25 14:10:53;;;;;;;4.80;2.58;;;;;;;15.70;20.16;99672.80;1709543;82;21616;-60
2021/03/25 14:13:21;;;;;;;2.83;2.37;;;;;;;15.54;20.77;99667.15;1708039;82;21673;-60
2021/03/25 14:15:50;;;;;;;3.10;2.55;;;;;;;15.19;20.21;99676.80;1702562;82;21181;-60
2021/03/25 14:18:27;;;;;;;3.33;2.52;;;;;;;14.88;20.53;99682.25;1707435;82;21684;-58
2021/03/25 14:21:00;;;;;;;4.47;2.45;;;;;;;14.73;20.69;99676.08;1706269;82;21789;-59
2021/03/25 14:23:27;;;;;;;3.37;2.87;;;;;;;14.81;20.79;99668.55;1707595;82;21664;-61
2021/03/25 14:25:55;;;;;;;6.35;3.05;;;;;;;14.75;20.43;99672.41;1706050;82;22742;-59
2021/03/25 14:28:27;;;;;;;;;;;;;;;14.37;20.01;99674.17;1713621;81;21574;-59
2021/03/25 14:30:56;;;;;;;4.05;2.58;;;;;;;13.69;21.06;99677.11;1707371;82;20690;-59
2021/03/25 14:33:25;;;;;;;5.05;2.65;;;;;;;13.25;21.36;99679.88;1706677;82;21586;-58
2021/03/25 14:35:53;;;;;;;2.90;2.42;;;;;;;12.94;22.07;99684.62;1707937;82;22063;-60
2021/03/25 14:38:22;;;;;;;;;;;;;;;12.60;22.20;99681.07;1715111;82;21205;-59
2021/03/25 14:40:51;;;;;;;4.83;2.70;;;;;;;12.39;22.83;99685.61;1706358;82;20613;-57
2021/03/25 14:43:21;;;;;;;3.72;2.60;;;;;;;12.38;22.69;99685.23;1708679;82;21662;-58
2021/03/25 14:45:49;;;;;;;6.45;2.70;;;;;;;12.33;22.79;99679.80;1707893;81;21650;-58
2021/03/25 14:48:18;;;;;;;4.90;2.60;;;;;;;12.26;23.20;99676.16;1712263;82;25387;-60
2021/03/25 14:50:47;;;;;;;3.35;2.98;;;;;;;12.07;23.28;99686.75;1708792;81;21623;-60
2021/03/25 14:53:16;;;;;;;5.35;3.25;;;;;;;11.98;23.78;99689.83;1708905;81;21630;-58
2021/03/25 14:55:45;;;;;;;4.95;3.20;;;;;;;11.85;23.78;99690.83;1709402;81;21550;-64
2021/03/25 14:58:13;;;;;;;6.65;3.47;;;;;;;11.73;23.90;99689.23;1711501;82;21225;-60
2021/03/25 15:00:45;;;;;;;8.48;3.37;;;;;;;11.56;23.85;99692.17;1709308;82;21586;-60
2021/03/25 15:03:15;;;;;;;8.58;3.58;;;;;;;11.33;24.28;99696.34;1710607;82;21657;-59
2021/03/25 15:05:44;;;;;;;5.17;3.77;;;;;;;11.12;24.54;99695.52;1710246;82;21224;-60
2021/03/25 15:08:12;;;;;;;9.18;4.03;;;;;;;10.95;24.53;99701.05;1711236;82;21772;-60
2021/03/25 15:10:43;;;;;;;4.25;3.50;;;;;;;10.61;24.04;99698.55;1711319;82;21897;-58
2021/03/25 15:13:12;;;;;;;5.72;3.70;;;;;;;10.24;24.68;99705.74;1708554;81;21920;-58
2021/03/25 15:15:42;;;;;;;4.33;3.72;;;;;;;10.04;25.24;99707.84;1711338;81;21539;-58
2021/03/25 15:18:10;;;;;;;;;;;;;;;9.80;25.40;99707.91;1705895;82;21642;-58
2021/03/25 15:20:40;;;;;;;6.58;3.50;;;;;;;9.62;25.66;99709.91;1714934;82;20585;-58
2021/03/25 15:23:25;;;;;;;8.53;4.17;;;;;;;9.42;26.05;99704.96;1714759;82;22054;-58
2021/03/25 15:25:54;;;;;;;6.05;4.40;;;;;;;9.24;26.36;99710.41;1710000;81;21848;-58
2021/03/25 15:28:22;;;;;;;7.80;4.45;;;;;;;9.05;26.65;99708.06;1710910;82;21641;-58
2021/03/25 15:30:51;;;;;;;7.50;4.78;;;;;;;8.92;26.87;99710.25;1701782;82;21062;-59
2021/03/25 15:33:18;;;;;;;7.95;4.08;;;;;;;8.84;26.99;99717.53;1704444;82;21590;-58
2021/03/25 15:35:51;;;;;;;10.10;4.62;;;;;;;8.74;27.09;99706.52;1713895;81;21595;-58
2021/03/25 15:38:24;;;;;;;11.43;4.62;;;;;;;8.65;27.27;99706.36;1724526;81;21630;-59
2021/03/25 15:40:54;;;;;;;13.43;5.80;;;;;;;8.56;27.56;99714.07;1721081;81;21475;-60
2021/03/25 15:43:24;;;;;;;7.72;4.40;;;;;;;8.42;27.67;99712.37;1730302;81;21638;-59
2021/03/25 15:45:53;;;;;;;10.45;4.87;;;;;;;8.31;27.86;99710.53;1724148;81;21662;-60
2021/03/25 15:48:22;;;;;;;16.85;6.37;;;;;;;8.15;27.98;99711.45;1724670;81;21642;-58
2021/03/25 15:50:52;;;;;;;9.43;5.42;;;;;;;8.00;28.23;99718.03;1722708;81;22048;-59
2021/03/25 15:53:24;;;;;;;12.23;5.78;;;;;;;7.82;28.55;99708.11;1724083;81;21607;-59
2021/03/25 15:55:52;;;;;;;16.97;7.03;;;;;;;7.68;28.64;99722.48;1722584;82;21179;-59
2021/03/25 15:58:21;;;;;;;14.03;7.08;;;;;;;7.53;28.73;99718.55;1729064;81;22134;-60
2021/03/25 16:00:49;;;;;;;15.75;7.42;;;;;;;7.36;28.98;99725.57;1730000;81;21576;-58
2021/03/25 16:03:18;;;;;;;16.55;7.60;;;;;;;7.19;29.21;99719.97;1722246;81;21583;-60
2021/03/25 16:05:46;;;;;;;18.90;7.35;;;;;;;7.03;29.56;99722.16;1728052;81;21638;-59
2021/03/25 16:08:15;;;;;;;23.77;7.83;;;;;;;6.89;29.77;99721.66;1728733;81;21153;-62
2021/03/25 16:10:45;;;;;;;17.65;7.45;;;;;;;6.72;29.92;99721.64;1726211;81;21649;-59
2021/03/25 16:13:12;;;;;;;14.68;7.67;;;;;;;6.53;30.18;99725.63;1726853;81;21234;-58
2021/03/25 16:15:43;;;;;;;;;;;;;;;6.34;30.28;99727.83;1737673;81;21961;-59
2021/03/25 16:18:11;;;;;;;11.43;6.72;;;;;;;6.16;30.44;99727.80;1727292;81;20571;-57
2021/03/25 16:20:43;;;;;;;15.43;7.20;;;;;;;5.97;30.60;99732.59;1726559;81;21652;-60
2021/03/25 16:23:15;;;;;;;19.23;6.85;;;;;;;5.82;31.24;99737.25;1708054;81;21515;-57
2021/03/25 16:25:45;;;;;;;14.55;5.85;;;;;;;5.68;32.22;99735.83;1733738;81;21224;-59
2021/03/25 16:28:13;;;;;;;16.00;7.05;;;;;;;5.51;33.21;99727.90;1734514;81;22614;-64
2021/03/25 16:30:41;;;;;;;14.47;7.03;;;;;;;5.37;33.49;99733.83;1672316;83;21563;-61
2021/03/25 16:33:11;;;;;;;17.52;8.55;;;;;;;5.25;33.64;99738.42;1675982;83;21625;-59
2021/03/25 16:35:42;;;;;;;26.33;10.18;;;;;;;5.12;33.77;99738.22;1674676;84;21558;-60
2021/03/25 16:38:15;;;;;;;21.27;8.50;;;;;;;5.02;33.89;99740.59;1679560;83;21635;-59
2021/03/25 16:40:43;;;;;;;26.80;9.55;;;;;;;4.94;34.43;99745.95;1692517;83;22085;-60
2021/03/25 16:43:15;;;;;;;27.65;10.32;;;;;;;4.81;34.75;99741.85;1689899;83;21627;-65
2021/03/25 16:48:36;;;;;;;19.75;8.38;;;;;;;4.80;34.64;99750.54;1777185;79;23210;-61
2021/03/25 16:51:07;;;;;;;18.90;9.83;;;;;;;4.84;34.14;99749.17;1749061;80;21655;-60
2021/03/25 16:53:35;;;;;;;23.35;10.78;;;;;;;4.79;34.27;99757.95;1754513;80;22027;-60
2021/03/25 16:56:06;;;;;;;20.48;10.85;;;;;;;4.69;34.32;99757.26;1740951;80;21785;-60
2021/03/25 16:58:34;;;;;;;25.10;10.98;;;;;;;4.60;33.92;99760.02;1742477;79;21662;-70
2021/03/25 17:01:02;;;;;;;19.73;10.40;;;;;;;4.53;34.01;99761.84;1753847;79;21587;-61
2021/03/25 17:03:30;;;;;;;20.10;10.40;;;;;;;4.44;34.41;99760.69;1753745;80;21662;-61
2021/03/25 17:05:59;;;;;;;30.23;11.28;;;;;;;4.34;34.78;99770.39;1750435;80;21868;-65
2021/03/25 17:08:29;;;;;;;30.50;12.23;;;;;;;4.25;35.35;99775.73;1738557;80;21693;-61
2021/03/25 17:11:01;;;;;;;27.65;11.60;;;;;;;4.13;35.72;99781.98;1689774;82;21201;-62
2021/03/25 17:13:32;;;;;;;25.52;11.70;;;;;;;4.02;35.87;99779.52;1692928;82;21568;-61
2021/03/25 17:16:03;;;;;;;27.70;12.10;;;;;;;3.92;36.52;99783.14;1681053;83;21493;-62
2021/03/25 17:18:31;;;;;;;23.73;12.00;;;;;;;3.84;36.34;99783.67;1686562;83;21944;-62
2021/03/25 17:21:00;;;;;;;22.07;11.57;;;;;;;3.77;36.20;99781.61;1684123;83;21646;-63
2021/03/25 17:23:31;;;;;;;20.15;10.20;;;;;;;3.69;35.88;99783.42;1688105;83;21610;-63
2021/03/25 17:25:58;;;;;;;27.93;12.00;;;;;;;3.63;36.15;99784.36;1685497;83;21674;-63
2021/03/25 17:28:31;;;;;;;21.57;10.70;;;;;;;3.58;36.53;99782.27;1682518;83;21941;-65
2021/03/25 17:31:00;;;;;;;24.55;10.03;;;;;;;3.53;36.60;99784.51;1688245;83;21647;-64
2021/03/25 17:33:29;;;;;;;18.70;9.73;;;;;;;3.47;36.47;99786.30;1686438;83;21596;-64
2021/03/25 17:35:58;;;;;;;24.18;9.75;;;;;;;3.42;36.93;99795.02;1683214;83;21627;-65
2021/03/25 17:38:26;;;;;;;15.08;8.78;;;;;;;3.37;36.89;99793.79;1686882;83;21200;-62
2021/03/25 17:40:54;;;;;;;15.75;8.03;;;;;;;3.32;36.83;99802.06;1686824;82;21493;-62
2021/03/25 17:43:23;;;;;;;;;;;;;;;3.27;36.73;99804.70;1688417;83;21972;-66
2021/03/25 17:45:51;;;;;;;17.40;8.55;;;;;;;3.25;37.49;99813.39;1691151;83;20476;-63
2021/03/25 17:48:23;;;;;;;14.85;7.80;;;;;;;3.20;37.41;99808.67;1675725;83;21641;-62